sensor_id;sensor_type;location;lat;lon;timestamp;temperature;humidity
20512;DHT22;10414;52.074;5.126;2022-08-19T00:00:16;20.40;99.90
20512;DHT22;10414;52.074;5.126;2022-08-19T00:02:43;20.40;99.90
20512;DHT22;10414;52.074;5.126;2022-08-19T00:05:13;20.40;99.90
20512;DHT22;10414;52.074;5.126;2022-08-19T00:07:41;20.30;99.90
20512;DHT22;10414;52.074;5.126;2022-08-19T00:10:09;20.30;99.90
20512;DHT22;10414;52.074;5.126;2022-08-19T00:12:37;20.30;99.90
20512;DHT22;10414;52.074;5.126;2022-08-19T00:15:05;20.30;99.90
20512;DHT22;10414;52.074;5.126;2022-08-19T00:17:33;20.30;99.90
20512;DHT22;10414;52.074;5.126;2022-08-19T00:20:00;20.30;99.90
20512;DHT22;10414;52.074;5.126;2022-08-19T00:22:28;20.30;99.90
20512;DHT22;10414;52.074;5.126;2022-08-19T00:24:55;20.30;99.90
20512;DHT22;10414;52.074;5.126;2022-08-19T00:27:22;20.30;99.90
20512;DHT22;10414;52.074;5.126;2022-08-19T00:29:49;20.30;99.90
20512;DHT22;10414;52.074;5.126;2022-08-19T00:32:16;20.20;99.90
20512;DHT22;10414;52.074;5.126;2022-08-19T00:34:43;20.20;99.90
20512;DHT22;10414;52.074;5.126;2022-08-19T00:37:10;20.20;99.90
20512;DHT22;10414;52.074;5.126;2022-08-19T00:39:38;20.20;99.90
20512;DHT22;10414;52.074;5.126;2022-08-19T00:42:05;20.20;99.90
20512;DHT22;10414;52.074;5.126;2022-08-19T00:44:32;20.10;99.90
20512;DHT22;10414;52.074;5.126;2022-08-19T00:46:59;20.10;99.90
20512;DHT22;10414;52.074;5.126;2022-08-19T00:49:30;20.10;99.90
20512;DHT22;10414;52.074;5.126;2022-08-19T00:52:07;20.10;99.90
20512;DHT22;10414;52.074;5.126;2022-08-19T00:54:35;20.10;99.90
20512;DHT22;10414;52.074;5.126;2022-08-19T00:57:09;19.90;99.90
20512;DHT22;10414;52.074;5.126;2022-08-19T00:59:39;19.80;99.90
20512;DHT22;10414;52.074;5.126;2022-08-19T01:02:08;19.70;99.90
20512;DHT22;10414;52.074;5.126;2022-08-19T01:04:35;19.60;99.90
20512;DHT22;10414;52.074;5.126;2022-08-19T01:07:02;19.70;99.90
20512;DHT22;10414;52.074;5.126;2022-08-19T01:09:29;19.70;99.90
20512;DHT22;10414;52.074;5.126;2022-08-19T01:11:56;19.70;99.90
20512;DHT22;10414;52.074;5.126;2022-08-19T01:14:25;19.90;99.90
20512;DHT22;10414;52.074;5.126;2022-08-19T01:16:53;19.80;99.90
20512;DHT22;10414;52.074;5.126;2022-08-19T01:19:27;19.80;99.90
20512;DHT22;10414;52.074;5.126;2022-08-19T01:21:58;19.80;99.90
20512;DHT22;10414;52.074;5.126;2022-08-19T01:24:28;19.80;99.90
20512;DHT22;10414;52.074;5.126;2022-08-19T01:26:56;19.80;99.90
20512;DHT22;10414;52.074;5.126;2022-08-19T01:29:23;19.90;99.90
20512;DHT22;10414;52.074;5.126;2022-08-19T01:31:50;19.90;99.90
20512;DHT22;10414;52.074;5.126;2022-08-19T01:34:18;19.80;99.90
20512;DHT22;10414;52.074;5.126;2022-08-19T01:36:47;19.80;99.90
20512;DHT22;10414;52.074;5.126;2022-08-19T01:39:19;19.90;99.90
20512;DHT22;10414;52.074;5.126;2022-08-19T01:41:48;19.80;99.90
20512;DHT22;10414;52.074;5.126;2022-08-19T01:44:15;19.80;99.90
20512;DHT22;10414;52.074;5.126;2022-08-19T01:46:47;19.70;99.90
20512;DHT22;10414;52.074;5.126;2022-08-19T01:49:15;19.70;99.90
20512;DHT22;10414;52.074;5.126;2022-08-19T01:51:43;19.70;99.90
20512;DHT22;10414;52.074;5.126;2022-08-19T01:54:12;19.60;99.90
20512;DHT22;10414;52.074;5.126;2022-08-19T01:56:39;19.60;99.90
20512;DHT22;10414;52.074;5.126;2022-08-19T01:59:10;19.70;99.90
20512;DHT22;10414;52.074;5.126;2022-08-19T02:01:39;19.70;99.90
20512;DHT22;10414;52.074;5.126;2022-08-19T02:04:06;19.70;99.90
20512;DHT22;10414;52.074;5.126;2022-08-19T02:06:33;19.60;99.90
20512;DHT22;10414;52.074;5.126;2022-08-19T02:09:01;19.70;99.90
20512;DHT22;10414;52.074;5.126;2022-08-19T02:11:30;19.70;99.90
20512;DHT22;10414;52.074;5.126;2022-08-19T02:13:59;19.50;99.90
20512;DHT22;10414;52.074;5.126;2022-08-19T02:16:28;19.50;99.90
20512;DHT22;10414;52.074;5.126;2022-08-19T02:18:55;19.50;99.90
20512;DHT22;10414;52.074;5.126;2022-08-19T02:21:24;19.50;99.90
20512;DHT22;10414;52.074;5.126;2022-08-19T02:23:51;19.50;99.90
20512;DHT22;10414;52.074;5.126;2022-08-19T02:26:18;19.50;99.90
20512;DHT22;10414;52.074;5.126;2022-08-19T02:28:45;19.50;99.90
20512;DHT22;10414;52.074;5.126;2022-08-19T02:31:16;19.30;99.90
20512;DHT22;10414;52.074;5.126;2022-08-19T02:33:45;19.20;99.90
20512;DHT22;10414;52.074;5.126;2022-08-19T02:36:14;19.30;99.90
20512;DHT22;10414;52.074;5.126;2022-08-19T02:38:41;19.40;99.90
20512;DHT22;10414;52.074;5.126;2022-08-19T02:41:12;19.40;99.90
20512;DHT22;10414;52.074;5.126;2022-08-19T02:43:40;19.50;99.90
20512;DHT22;10414;52.074;5.126;2022-08-19T02:46:16;19.50;99.90
20512;DHT22;10414;52.074;5.126;2022-08-19T02:48:48;19.40;99.90
20512;DHT22;10414;52.074;5.126;2022-08-19T02:51:17;19.30;99.90
20512;DHT22;10414;52.074;5.126;2022-08-19T02:53:44;19.20;99.90
20512;DHT22;10414;52.074;5.126;2022-08-19T02:56:11;19.30;99.90
20512;DHT22;10414;52.074;5.126;2022-08-19T02:58:38;19.30;99.90
20512;DHT22;10414;52.074;5.126;2022-08-19T03:01:05;19.30;99.90
20512;DHT22;10414;52.074;5.126;2022-08-19T03:03:33;19.40;99.90
20512;DHT22;10414;52.074;5.126;2022-08-19T03:06:10;19.30;99.90
20512;DHT22;10414;52.074;5.126;2022-08-19T03:08:40;19.30;99.90
20512;DHT22;10414;52.074;5.126;2022-08-19T03:11:12;19.20;99.90
20512;DHT22;10414;52.074;5.126;2022-08-19T03:13:39;19.20;99.90
20512;DHT22;10414;52.074;5.126;2022-08-19T03:16:08;19.20;99.90
20512;DHT22;10414;52.074;5.126;2022-08-19T03:18:35;19.20;99.90
20512;DHT22;10414;52.074;5.126;2022-08-19T03:21:03;19.00;99.90
20512;DHT22;10414;52.074;5.126;2022-08-19T03:23:32;19.10;99.90
20512;DHT22;10414;52.074;5.126;2022-08-19T03:26:03;19.10;99.90
20512;DHT22;10414;52.074;5.126;2022-08-19T03:28:30;19.10;99.90
20512;DHT22;10414;52.074;5.126;2022-08-19T03:30:59;19.10;99.90
20512;DHT22;10414;52.074;5.126;2022-08-19T03:33:27;19.10;99.90
20512;DHT22;10414;52.074;5.126;2022-08-19T03:36:06;19.00;99.90
20512;DHT22;10414;52.074;5.126;2022-08-19T03:38:36;18.90;99.90
20512;DHT22;10414;52.074;5.126;2022-08-19T03:41:04;19.00;99.90
20512;DHT22;10414;52.074;5.126;2022-08-19T03:43:34;18.70;99.90
20512;DHT22;10414;52.074;5.126;2022-08-19T03:46:08;18.50;99.90
20512;DHT22;10414;52.074;5.126;2022-08-19T03:48:36;18.40;99.90
20512;DHT22;10414;52.074;5.126;2022-08-19T03:51:04;18.40;99.90
20512;DHT22;10414;52.074;5.126;2022-08-19T03:53:33;18.30;99.90
20512;DHT22;10414;52.074;5.126;2022-08-19T03:56:02;18.30;99.90
20512;DHT22;10414;52.074;5.126;2022-08-19T03:58:29;18.30;99.90
20512;DHT22;10414;52.074;5.126;2022-08-19T04:00:57;18.30;99.90
20512;DHT22;10414;52.074;5.126;2022-08-19T04:03:24;18.30;99.90
20512;DHT22;10414;52.074;5.126;2022-08-19T04:05:52;18.30;99.90
20512;DHT22;10414;52.074;5.126;2022-08-19T04:08:20;18.50;99.90
20512;DHT22;10414;52.074;5.126;2022-08-19T04:10:48;18.60;99.90
20512;DHT22;10414;52.074;5.126;2022-08-19T04:13:17;18.70;99.90
20512;DHT22;10414;52.074;5.126;2022-08-19T04:15:45;18.80;99.90
20512;DHT22;10414;52.074;5.126;2022-08-19T04:18:13;18.60;99.90
20512;DHT22;10414;52.074;5.126;2022-08-19T04:20:42;18.30;99.90
20512;DHT22;10414;52.074;5.126;2022-08-19T04:23:10;18.20;99.90
20512;DHT22;10414;52.074;5.126;2022-08-19T04:25:39;18.30;99.90
20512;DHT22;10414;52.074;5.126;2022-08-19T04:28:07;18.30;99.90
20512;DHT22;10414;52.074;5.126;2022-08-19T04:30:40;18.40;99.90
20512;DHT22;10414;52.074;5.126;2022-08-19T04:33:08;18.30;99.90
20512;DHT22;10414;52.074;5.126;2022-08-19T04:35:37;18.40;99.90
20512;DHT22;10414;52.074;5.126;2022-08-19T04:38:05;18.50;99.90
20512;DHT22;10414;52.074;5.126;2022-08-19T04:40:32;18.70;99.90
20512;DHT22;10414;52.074;5.126;2022-08-19T04:43:22;18.90;99.90
20512;DHT22;10414;52.074;5.126;2022-08-19T04:45:50;18.90;99.90
20512;DHT22;10414;52.074;5.126;2022-08-19T04:48:18;19.00;99.90
20512;DHT22;10414;52.074;5.126;2022-08-19T04:50:51;19.10;99.90
20512;DHT22;10414;52.074;5.126;2022-08-19T04:53:23;19.10;99.90
20512;DHT22;10414;52.074;5.126;2022-08-19T04:55:50;19.20;99.90
20512;DHT22;10414;52.074;5.126;2022-08-19T04:58:17;19.20;99.90
20512;DHT22;10414;52.074;5.126;2022-08-19T05:00:44;19.30;99.90
20512;DHT22;10414;52.074;5.126;2022-08-19T05:03:12;19.30;99.90
20512;DHT22;10414;52.074;5.126;2022-08-19T05:05:43;19.30;99.90
20512;DHT22;10414;52.074;5.126;2022-08-19T05:08:10;19.50;99.90
20512;DHT22;10414;52.074;5.126;2022-08-19T05:10:38;19.50;99.90
20512;DHT22;10414;52.074;5.126;2022-08-19T05:13:06;19.60;99.90
20512;DHT22;10414;52.074;5.126;2022-08-19T05:15:34;19.80;99.90
20512;DHT22;10414;52.074;5.126;2022-08-19T05:18:01;19.60;99.90
20512;DHT22;10414;52.074;5.126;2022-08-19T05:20:47;19.50;99.90
20512;DHT22;10414;52.074;5.126;2022-08-19T05:23:31;19.50;99.90
20512;DHT22;10414;52.074;5.126;2022-08-19T05:25:58;19.50;99.90
20512;DHT22;10414;52.074;5.126;2022-08-19T05:28:26;19.80;99.90
20512;DHT22;10414;52.074;5.126;2022-08-19T05:30:53;19.90;99.90
20512;DHT22;10414;52.074;5.126;2022-08-19T05:33:21;20.10;99.90
20512;DHT22;10414;52.074;5.126;2022-08-19T05:35:49;20.60;99.90
20512;DHT22;10414;52.074;5.126;2022-08-19T05:38:16;21.40;99.90
20512;DHT22;10414;52.074;5.126;2022-08-19T05:40:43;22.20;99.90
20512;DHT22;10414;52.074;5.126;2022-08-19T05:43:12;22.60;99.90
20512;DHT22;10414;52.074;5.126;2022-08-19T05:45:42;22.80;99.90
20512;DHT22;10414;52.074;5.126;2022-08-19T05:48:10;23.30;99.90
20512;DHT22;10414;52.074;5.126;2022-08-19T05:50:37;23.80;99.90
20512;DHT22;10414;52.074;5.126;2022-08-19T05:53:06;23.80;99.90
20512;DHT22;10414;52.074;5.126;2022-08-19T05:55:35;23.40;99.90
20512;DHT22;10414;52.074;5.126;2022-08-19T05:58:03;22.80;99.90
20512;DHT22;10414;52.074;5.126;2022-08-19T06:00:33;22.10;99.90
20512;DHT22;10414;52.074;5.126;2022-08-19T06:03:00;21.50;99.90
20512;DHT22;10414;52.074;5.126;2022-08-19T06:05:29;21.00;99.90
20512;DHT22;10414;52.074;5.126;2022-08-19T06:07:56;20.70;99.90
20512;DHT22;10414;52.074;5.126;2022-08-19T06:10:25;20.70;99.90
20512;DHT22;10414;52.074;5.126;2022-08-19T06:12:52;20.80;99.90
20512;DHT22;10414;52.074;5.126;2022-08-19T06:15:22;20.90;99.90
20512;DHT22;10414;52.074;5.126;2022-08-19T06:17:51;20.70;99.90
20512;DHT22;10414;52.074;5.126;2022-08-19T06:20:18;20.60;99.90
20512;DHT22;10414;52.074;5.126;2022-08-19T06:22:48;20.50;99.90
20512;DHT22;10414;52.074;5.126;2022-08-19T06:25:17;20.30;99.90
20512;DHT22;10414;52.074;5.126;2022-08-19T06:27:46;20.40;99.90
20512;DHT22;10414;52.074;5.126;2022-08-19T06:30:13;20.50;99.90
20512;DHT22;10414;52.074;5.126;2022-08-19T06:32:40;20.40;99.90
20512;DHT22;10414;52.074;5.126;2022-08-19T06:35:07;20.30;99.90
20512;DHT22;10414;52.074;5.126;2022-08-19T06:37:36;20.20;99.90
20512;DHT22;10414;52.074;5.126;2022-08-19T06:40:04;20.20;99.90
20512;DHT22;10414;52.074;5.126;2022-08-19T06:42:31;20.20;99.90
20512;DHT22;10414;52.074;5.126;2022-08-19T06:44:59;20.30;99.90
20512;DHT22;10414;52.074;5.126;2022-08-19T06:47:28;20.40;99.90
20512;DHT22;10414;52.074;5.126;2022-08-19T06:49:55;20.50;99.90
20512;DHT22;10414;52.074;5.126;2022-08-19T06:52:24;20.70;99.90
20512;DHT22;10414;52.074;5.126;2022-08-19T06:54:51;21.10;99.90
20512;DHT22;10414;52.074;5.126;2022-08-19T06:57:19;21.30;99.90
20512;DHT22;10414;52.074;5.126;2022-08-19T06:59:47;21.30;99.90
20512;DHT22;10414;52.074;5.126;2022-08-19T07:02:15;21.70;99.90
20512;DHT22;10414;52.074;5.126;2022-08-19T07:04:42;22.00;99.90
20512;DHT22;10414;52.074;5.126;2022-08-19T07:07:11;22.10;99.90
20512;DHT22;10414;52.074;5.126;2022-08-19T07:09:40;22.40;99.90
20512;DHT22;10414;52.074;5.126;2022-08-19T07:12:09;22.40;99.90
20512;DHT22;10414;52.074;5.126;2022-08-19T07:14:38;22.50;99.90
20512;DHT22;10414;52.074;5.126;2022-08-19T07:17:07;22.50;99.90
20512;DHT22;10414;52.074;5.126;2022-08-19T07:19:36;22.70;99.90
20512;DHT22;10414;52.074;5.126;2022-08-19T07:22:06;22.90;99.90
20512;DHT22;10414;52.074;5.126;2022-08-19T07:24:34;22.90;99.90
20512;DHT22;10414;52.074;5.126;2022-08-19T07:27:03;22.70;99.90
20512;DHT22;10414;52.074;5.126;2022-08-19T07:29:33;22.60;99.90
20512;DHT22;10414;52.074;5.126;2022-08-19T07:32:01;22.50;99.90
20512;DHT22;10414;52.074;5.126;2022-08-19T07:34:29;22.60;99.90
20512;DHT22;10414;52.074;5.126;2022-08-19T07:36:58;22.90;99.90
20512;DHT22;10414;52.074;5.126;2022-08-19T07:39:27;22.90;99.90
20512;DHT22;10414;52.074;5.126;2022-08-19T07:41:56;22.90;99.90
20512;DHT22;10414;52.074;5.126;2022-08-19T07:44:23;22.90;99.90
20512;DHT22;10414;52.074;5.126;2022-08-19T07:46:52;22.80;99.90
20512;DHT22;10414;52.074;5.126;2022-08-19T07:49:21;22.50;99.90
20512;DHT22;10414;52.074;5.126;2022-08-19T07:51:50;22.70;99.90
20512;DHT22;10414;52.074;5.126;2022-08-19T07:54:20;22.90;99.90
20512;DHT22;10414;52.074;5.126;2022-08-19T07:56:48;23.20;99.90
20512;DHT22;10414;52.074;5.126;2022-08-19T07:59:16;23.30;99.90
20512;DHT22;10414;52.074;5.126;2022-08-19T08:01:43;23.40;99.90
20512;DHT22;10414;52.074;5.126;2022-08-19T08:04:11;23.20;99.90
20512;DHT22;10414;52.074;5.126;2022-08-19T08:06:58;23.30;99.90
20512;DHT22;10414;52.074;5.126;2022-08-19T08:09:44;23.20;99.90
20512;DHT22;10414;52.074;5.126;2022-08-19T08:12:13;22.90;99.90
20512;DHT22;10414;52.074;5.126;2022-08-19T08:14:42;22.90;99.90
20512;DHT22;10414;52.074;5.126;2022-08-19T08:17:12;22.80;99.90
20512;DHT22;10414;52.074;5.126;2022-08-19T08:19:39;22.90;99.90
20512;DHT22;10414;52.074;5.126;2022-08-19T08:22:11;23.50;99.90
20512;DHT22;10414;52.074;5.126;2022-08-19T08:25:04;23.80;99.90
20512;DHT22;10414;52.074;5.126;2022-08-19T08:27:34;24.00;99.90
20512;DHT22;10414;52.074;5.126;2022-08-19T08:30:02;24.30;99.90
20512;DHT22;10414;52.074;5.126;2022-08-19T08:32:31;25.20;99.90
20512;DHT22;10414;52.074;5.126;2022-08-19T08:34:57;26.80;99.90
20512;DHT22;10414;52.074;5.126;2022-08-19T08:37:24;30.40;99.90
20512;DHT22;10414;52.074;5.126;2022-08-19T08:39:51;31.40;96.40
20512;DHT22;10414;52.074;5.126;2022-08-19T08:42:24;30.90;96.50
20512;DHT22;10414;52.074;5.126;2022-08-19T08:44:59;31.50;95.80
20512;DHT22;10414;52.074;5.126;2022-08-19T08:47:30;31.60;95.10
20512;DHT22;10414;52.074;5.126;2022-08-19T08:50:03;30.60;95.30
20512;DHT22;10414;52.074;5.126;2022-08-19T08:52:33;29.10;97.30
20512;DHT22;10414;52.074;5.126;2022-08-19T08:55:05;28.20;99.00
20512;DHT22;10414;52.074;5.126;2022-08-19T08:57:38;27.60;99.90
20512;DHT22;10414;52.074;5.126;2022-08-19T09:00:08;27.10;99.90
20512;DHT22;10414;52.074;5.126;2022-08-19T09:02:36;26.60;99.90
20512;DHT22;10414;52.074;5.126;2022-08-19T09:05:03;26.50;99.90
20512;DHT22;10414;52.074;5.126;2022-08-19T09:07:40;26.90;99.90
20512;DHT22;10414;52.074;5.126;2022-08-19T09:10:17;26.70;99.90
20512;DHT22;10414;52.074;5.126;2022-08-19T09:12:55;26.60;99.90
20512;DHT22;10414;52.074;5.126;2022-08-19T09:15:29;27.40;99.90
20512;DHT22;10414;52.074;5.126;2022-08-19T09:18:00;29.80;99.00
20512;DHT22;10414;52.074;5.126;2022-08-19T09:20:29;31.80;95.30
20512;DHT22;10414;52.074;5.126;2022-08-19T09:22:56;31.40;95.00
20512;DHT22;10414;52.074;5.126;2022-08-19T09:25:24;30.50;96.10
20512;DHT22;10414;52.074;5.126;2022-08-19T09:27:53;29.40;97.80
20512;DHT22;10414;52.074;5.126;2022-08-19T09:30:24;28.50;98.80
20512;DHT22;10414;52.074;5.126;2022-08-19T09:32:52;28.00;99.90
20512;DHT22;10414;52.074;5.126;2022-08-19T09:35:20;27.50;99.90
20512;DHT22;10414;52.074;5.126;2022-08-19T09:37:51;27.60;99.90
20512;DHT22;10414;52.074;5.126;2022-08-19T09:40:18;28.70;99.80
20512;DHT22;10414;52.074;5.126;2022-08-19T09:42:46;28.50;99.90
20512;DHT22;10414;52.074;5.126;2022-08-19T09:45:16;28.60;99.90
20512;DHT22;10414;52.074;5.126;2022-08-19T09:47:43;28.50;99.90
20512;DHT22;10414;52.074;5.126;2022-08-19T09:50:11;28.60;99.70
20512;DHT22;10414;52.074;5.126;2022-08-19T09:52:38;28.10;99.90
20512;DHT22;10414;52.074;5.126;2022-08-19T09:55:09;27.90;99.90
20512;DHT22;10414;52.074;5.126;2022-08-19T09:57:36;27.90;99.90
20512;DHT22;10414;52.074;5.126;2022-08-19T10:00:04;27.40;99.90
20512;DHT22;10414;52.074;5.126;2022-08-19T10:02:33;27.20;99.90
20512;DHT22;10414;52.074;5.126;2022-08-19T10:05:01;27.50;99.90
20512;DHT22;10414;52.074;5.126;2022-08-19T10:07:46;27.50;99.90
20512;DHT22;10414;52.074;5.126;2022-08-19T10:10:13;27.40;99.90
20512;DHT22;10414;52.074;5.126;2022-08-19T10:12:43;27.30;99.90
20512;DHT22;10414;52.074;5.126;2022-08-19T10:15:13;27.80;99.90
20512;DHT22;10414;52.074;5.126;2022-08-19T10:17:42;29.90;99.40
20512;DHT22;10414;52.074;5.126;2022-08-19T10:20:09;31.60;96.00
20512;DHT22;10414;52.074;5.126;2022-08-19T10:22:37;32.30;95.40
20512;DHT22;10414;52.074;5.126;2022-08-19T10:25:05;32.90;94.20
20512;DHT22;10414;52.074;5.126;2022-08-19T10:27:32;33.80;92.60
20512;DHT22;10414;52.074;5.126;2022-08-19T10:29:59;33.20;93.20
20512;DHT22;10414;52.074;5.126;2022-08-19T10:32:26;33.00;93.20
20512;DHT22;10414;52.074;5.126;2022-08-19T10:34:56;32.90;92.80
20512;DHT22;10414;52.074;5.126;2022-08-19T10:37:23;32.80;93.20
20512;DHT22;10414;52.074;5.126;2022-08-19T10:39:50;32.80;93.10
20512;DHT22;10414;52.074;5.126;2022-08-19T10:42:17;32.40;93.40
20512;DHT22;10414;52.074;5.126;2022-08-19T10:44:44;31.90;94.20
20512;DHT22;10414;52.074;5.126;2022-08-19T10:47:13;31.50;94.50
20512;DHT22;10414;52.074;5.126;2022-08-19T10:49:41;31.80;94.00
20512;DHT22;10414;52.074;5.126;2022-08-19T10:52:23;32.50;93.40
20512;DHT22;10414;52.074;5.126;2022-08-19T10:55:05;32.30;93.20
20512;DHT22;10414;52.074;5.126;2022-08-19T10:57:50;30.60;95.10
20512;DHT22;10414;52.074;5.126;2022-08-19T11:00:18;30.10;96.10
20512;DHT22;10414;52.074;5.126;2022-08-19T11:02:45;30.10;95.90
20512;DHT22;10414;52.074;5.126;2022-08-19T11:05:13;30.10;96.00
20512;DHT22;10414;52.074;5.126;2022-08-19T11:07:42;29.90;96.30
20512;DHT22;10414;52.074;5.126;2022-08-19T11:10:11;29.60;96.80
20512;DHT22;10414;52.074;5.126;2022-08-19T11:12:39;28.80;98.00
20512;DHT22;10414;52.074;5.126;2022-08-19T11:15:08;28.50;98.70
20512;DHT22;10414;52.074;5.126;2022-08-19T11:17:36;27.70;99.70
20512;DHT22;10414;52.074;5.126;2022-08-19T11:20:07;27.20;99.90
20512;DHT22;10414;52.074;5.126;2022-08-19T11:22:34;26.90;99.90
20512;DHT22;10414;52.074;5.126;2022-08-19T11:25:03;26.90;99.90
20512;DHT22;10414;52.074;5.126;2022-08-19T11:27:30;26.70;99.90
20512;DHT22;10414;52.074;5.126;2022-08-19T11:29:57;26.70;99.90
20512;DHT22;10414;52.074;5.126;2022-08-19T11:32:24;26.70;99.90
20512;DHT22;10414;52.074;5.126;2022-08-19T11:34:51;26.70;99.90
20512;DHT22;10414;52.074;5.126;2022-08-19T11:37:18;26.50;99.90
20512;DHT22;10414;52.074;5.126;2022-08-19T11:39:45;26.10;99.90
20512;DHT22;10414;52.074;5.126;2022-08-19T11:42:13;25.80;99.90
20512;DHT22;10414;52.074;5.126;2022-08-19T11:44:58;25.80;99.90
20512;DHT22;10414;52.074;5.126;2022-08-19T11:47:25;26.00;99.90
20512;DHT22;10414;52.074;5.126;2022-08-19T11:49:52;26.10;99.90
20512;DHT22;10414;52.074;5.126;2022-08-19T11:52:18;26.20;99.90
20512;DHT22;10414;52.074;5.126;2022-08-19T11:54:45;26.10;99.90
20512;DHT22;10414;52.074;5.126;2022-08-19T11:57:14;26.00;99.90
20512;DHT22;10414;52.074;5.126;2022-08-19T11:59:42;26.00;99.90
20512;DHT22;10414;52.074;5.126;2022-08-19T12:02:13;25.90;99.90
20512;DHT22;10414;52.074;5.126;2022-08-19T12:04:41;25.90;99.90
20512;DHT22;10414;52.074;5.126;2022-08-19T12:07:08;26.00;99.90
20512;DHT22;10414;52.074;5.126;2022-08-19T12:09:34;26.30;99.90
20512;DHT22;10414;52.074;5.126;2022-08-19T12:12:02;26.20;99.90
20512;DHT22;10414;52.074;5.126;2022-08-19T12:14:30;26.40;99.90
20512;DHT22;10414;52.074;5.126;2022-08-19T12:16:57;26.70;99.90
20512;DHT22;10414;52.074;5.126;2022-08-19T12:19:25;26.70;99.90
20512;DHT22;10414;52.074;5.126;2022-08-19T12:21:52;27.20;99.90
20512;DHT22;10414;52.074;5.126;2022-08-19T12:24:21;27.40;99.90
20512;DHT22;10414;52.074;5.126;2022-08-19T12:26:49;28.00;99.90
20512;DHT22;10414;52.074;5.126;2022-08-19T12:29:16;28.50;99.90
20512;DHT22;10414;52.074;5.126;2022-08-19T12:31:45;28.60;99.90
20512;DHT22;10414;52.074;5.126;2022-08-19T12:34:11;28.60;99.90
20512;DHT22;10414;52.074;5.126;2022-08-19T12:36:38;28.40;99.60
20512;DHT22;10414;52.074;5.126;2022-08-19T12:39:05;28.50;99.80
20512;DHT22;10414;52.074;5.126;2022-08-19T12:41:33;27.80;99.90
20512;DHT22;10414;52.074;5.126;2022-08-19T12:44:01;27.80;99.90
20512;DHT22;10414;52.074;5.126;2022-08-19T12:46:28;27.90;99.90
20512;DHT22;10414;52.074;5.126;2022-08-19T12:48:58;28.10;99.90
20512;DHT22;10414;52.074;5.126;2022-08-19T12:51:25;28.20;99.90
20512;DHT22;10414;52.074;5.126;2022-08-19T12:53:52;27.40;99.90
20512;DHT22;10414;52.074;5.126;2022-08-19T12:56:19;27.10;99.90
20512;DHT22;10414;52.074;5.126;2022-08-19T12:58:46;26.80;99.90
20512;DHT22;10414;52.074;5.126;2022-08-19T13:01:14;26.50;99.90
20512;DHT22;10414;52.074;5.126;2022-08-19T13:03:42;26.30;99.90
20512;DHT22;10414;52.074;5.126;2022-08-19T13:06:10;26.30;99.90
20512;DHT22;10414;52.074;5.126;2022-08-19T13:08:37;26.10;99.90
20512;DHT22;10414;52.074;5.126;2022-08-19T13:11:10;26.30;99.90
20512;DHT22;10414;52.074;5.126;2022-08-19T13:13:38;26.70;99.90
20512;DHT22;10414;52.074;5.126;2022-08-19T13:16:07;27.00;99.90
20512;DHT22;10414;52.074;5.126;2022-08-19T13:18:34;27.10;99.90
20512;DHT22;10414;52.074;5.126;2022-08-19T13:21:02;27.10;99.90
20512;DHT22;10414;52.074;5.126;2022-08-19T13:23:32;26.70;99.90
20512;DHT22;10414;52.074;5.126;2022-08-19T13:26:00;26.30;99.90
20512;DHT22;10414;52.074;5.126;2022-08-19T13:28:28;26.00;99.90
20512;DHT22;10414;52.074;5.126;2022-08-19T13:31:16;25.90;99.90
20512;DHT22;10414;52.074;5.126;2022-08-19T13:34:01;25.60;99.90
20512;DHT22;10414;52.074;5.126;2022-08-19T13:36:28;25.20;99.90
20512;DHT22;10414;52.074;5.126;2022-08-19T13:38:57;25.10;99.90
20512;DHT22;10414;52.074;5.126;2022-08-19T13:41:25;24.80;99.90
20512;DHT22;10414;52.074;5.126;2022-08-19T13:43:52;24.70;99.90
20512;DHT22;10414;52.074;5.126;2022-08-19T13:46:20;24.60;99.90
20512;DHT22;10414;52.074;5.126;2022-08-19T13:48:47;24.60;99.90
20512;DHT22;10414;52.074;5.126;2022-08-19T13:51:15;24.30;99.90
20512;DHT22;10414;52.074;5.126;2022-08-19T13:53:42;24.30;99.90
20512;DHT22;10414;52.074;5.126;2022-08-19T13:56:13;24.40;99.90
20512;DHT22;10414;52.074;5.126;2022-08-19T13:58:40;24.80;99.90
20512;DHT22;10414;52.074;5.126;2022-08-19T14:01:10;24.90;99.90
20512;DHT22;10414;52.074;5.126;2022-08-19T14:03:38;25.00;99.90
20512;DHT22;10414;52.074;5.126;2022-08-19T14:06:05;25.10;99.90
20512;DHT22;10414;52.074;5.126;2022-08-19T14:08:32;25.10;99.90
20512;DHT22;10414;52.074;5.126;2022-08-19T14:10:59;25.20;99.90
20512;DHT22;10414;52.074;5.126;2022-08-19T14:13:27;25.30;99.90
20512;DHT22;10414;52.074;5.126;2022-08-19T14:15:54;25.20;99.90
20512;DHT22;10414;52.074;5.126;2022-08-19T14:18:21;24.80;99.90
20512;DHT22;10414;52.074;5.126;2022-08-19T14:20:50;24.60;99.90
20512;DHT22;10414;52.074;5.126;2022-08-19T14:23:18;24.30;99.90
20512;DHT22;10414;52.074;5.126;2022-08-19T14:25:45;24.30;99.90
20512;DHT22;10414;52.074;5.126;2022-08-19T14:28:13;24.30;99.90
20512;DHT22;10414;52.074;5.126;2022-08-19T14:30:41;24.30;99.90
20512;DHT22;10414;52.074;5.126;2022-08-19T14:33:10;24.50;99.90
20512;DHT22;10414;52.074;5.126;2022-08-19T14:35:37;24.80;99.90
20512;DHT22;10414;52.074;5.126;2022-08-19T14:38:05;25.00;99.90
20512;DHT22;10414;52.074;5.126;2022-08-19T14:40:33;25.60;99.90
20512;DHT22;10414;52.074;5.126;2022-08-19T14:43:02;25.70;99.90
20512;DHT22;10414;52.074;5.126;2022-08-19T14:45:30;25.80;99.90
20512;DHT22;10414;52.074;5.126;2022-08-19T14:47:59;25.80;99.90
20512;DHT22;10414;52.074;5.126;2022-08-19T14:50:26;25.80;99.90
20512;DHT22;10414;52.074;5.126;2022-08-19T14:52:58;25.80;99.90
20512;DHT22;10414;52.074;5.126;2022-08-19T14:55:26;25.90;99.90
20512;DHT22;10414;52.074;5.126;2022-08-19T14:57:53;25.90;99.90
20512;DHT22;10414;52.074;5.126;2022-08-19T15:00:20;26.10;99.90
20512;DHT22;10414;52.074;5.126;2022-08-19T15:02:49;26.20;99.90
20512;DHT22;10414;52.074;5.126;2022-08-19T15:05:17;26.20;99.90
20512;DHT22;10414;52.074;5.126;2022-08-19T15:07:44;26.00;99.90
20512;DHT22;10414;52.074;5.126;2022-08-19T15:10:13;26.10;99.90
20512;DHT22;10414;52.074;5.126;2022-08-19T15:12:40;25.80;99.90
20512;DHT22;10414;52.074;5.126;2022-08-19T15:15:09;25.90;99.90
20512;DHT22;10414;52.074;5.126;2022-08-19T15:17:38;26.00;99.90
20512;DHT22;10414;52.074;5.126;2022-08-19T15:20:06;26.10;99.90
20512;DHT22;10414;52.074;5.126;2022-08-19T15:22:35;25.80;99.90
20512;DHT22;10414;52.074;5.126;2022-08-19T15:25:03;25.50;99.90
20512;DHT22;10414;52.074;5.126;2022-08-19T15:27:30;25.20;99.90
20512;DHT22;10414;52.074;5.126;2022-08-19T15:29:58;25.10;99.90
20512;DHT22;10414;52.074;5.126;2022-08-19T15:32:25;24.90;99.90
20512;DHT22;10414;52.074;5.126;2022-08-19T15:34:53;24.70;99.90
20512;DHT22;10414;52.074;5.126;2022-08-19T15:37:20;24.60;99.90
20512;DHT22;10414;52.074;5.126;2022-08-19T15:39:50;24.70;99.90